sensor_id;sensor_type;location;lat;lon;timestamp;P1;durP1;ratioP1;P2;durP2;ratioP2
77748;SDS011;66938;52.084;5.228;2023-05-10T00:00:14;70.7;;;49.2;;
77748;SDS011;66938;52.084;5.228;2023-05-10T00:01:51;101.8;;;55.4;;
77748;SDS011;66938;52.084;5.228;2023-05-10T00:03:27;95.8;;;57.2;;
77748;SDS011;66938;52.084;5.228;2023-05-10T00:06:40;72.2;;;53.9;;
77748;SDS011;66938;52.084;5.228;2023-05-10T00:08:16;78.5;;;55.6;;
77748;SDS011;66938;52.084;5.228;2023-05-10T00:09:52;84.3;;;56.8;;
77748;SDS011;66938;52.084;5.228;2023-05-10T00:13:05;86.4;;;58.4;;
77748;SDS011;66938;52.084;5.228;2023-05-10T00:14:41;112.4;;;62.1;;
77748;SDS011;66938;52.084;5.228;2023-05-10T00:16:17;113.8;;;61.8;;
77748;SDS011;66938;52.084;5.228;2023-05-10T00:19:29;113.8;;;61.8;;
77748;SDS011;66938;52.084;5.228;2023-05-10T00:21:05;133.0;;;63.9;;
77748;SDS011;66938;52.084;5.228;2023-05-10T00:22:41;77.2;;;53.3;;
77748;SDS011;66938;52.084;5.228;2023-05-10T00:24:18;95.9;;;57.0;;
77748;SDS011;66938;52.084;5.228;2023-05-10T00:27:30;72.2;;;52.0;;
77748;SDS011;66938;52.084;5.228;2023-05-10T00:29:06;63.6;;;50.8;;
77748;SDS011;66938;52.084;5.228;2023-05-10T00:30:42;113.9;;;64.5;;
77748;SDS011;66938;52.084;5.228;2023-05-10T00:33:55;86.7;;;55.7;;
77748;SDS011;66938;52.084;5.228;2023-05-10T00:35:31;80.3;;;55.1;;
77748;SDS011;66938;52.084;5.228;2023-05-10T00:37:08;89.9;;;57.5;;
77748;SDS011;66938;52.084;5.228;2023-05-10T00:40:20;69.8;;;50.3;;
77748;SDS011;66938;52.084;5.228;2023-05-10T00:41:56;90.3;;;56.0;;
77748;SDS011;66938;52.084;5.228;2023-05-10T00:43:32;115.8;;;60.4;;
77748;SDS011;66938;52.084;5.228;2023-05-10T00:46:44;93.5;;;57.0;;
77748;SDS011;66938;52.084;5.228;2023-05-10T00:48:20;135.1;;;66.0;;
77748;SDS011;66938;52.084;5.228;2023-05-10T00:49:58;116.8;;;60.3;;
77748;SDS011;66938;52.084;5.228;2023-05-10T00:51:34;83.0;;;55.7;;
77748;SDS011;66938;52.084;5.228;2023-05-10T00:54:46;62.7;;;51.0;;
77748;SDS011;66938;52.084;5.228;2023-05-10T00:56:22;61.7;;;50.7;;
77748;SDS011;66938;52.084;5.228;2023-05-10T00:57:59;87.1;;;58.6;;
77748;SDS011;66938;52.084;5.228;2023-05-10T01:01:11;74.2;;;54.9;;
77748;SDS011;66938;52.084;5.228;2023-05-10T01:02:49;66.0;;;52.6;;
77748;SDS011;66938;52.084;5.228;2023-05-10T01:04:25;60.3;;;50.5;;
77748;SDS011;66938;52.084;5.228;2023-05-10T01:07:37;76.2;;;55.1;;
77748;SDS011;66938;52.084;5.228;2023-05-10T01:09:13;69.2;;;53.4;;
77748;SDS011;66938;52.084;5.228;2023-05-10T01:10:49;76.61;;;55.4;;
77748;SDS011;66938;52.084;5.228;2023-05-10T01:12:25;77.0;;;55.7;;
77748;SDS011;66938;52.084;5.228;2023-05-10T01:15:39;89.0;;;58.9;;
77748;SDS011;66938;52.084;5.228;2023-05-10T01:17:16;61.7;;;50.8;;
77748;SDS011;66938;52.084;5.228;2023-05-10T01:18:53;70.7;;;54.5;;
77748;SDS011;66938;52.084;5.228;2023-05-10T01:22:28;69.91;;;53.1;;
77748;SDS011;66938;52.084;5.228;2023-05-10T01:24:46;60.1;;;50.3;;
77748;SDS011;66938;52.084;5.228;2023-05-10T01:28:07;66.3;;;51.9;;
77748;SDS011;66938;52.084;5.228;2023-05-10T01:30:01;60.6;;;49.0;;
77748;SDS011;66938;52.084;5.228;2023-05-10T01:32:03;63.7;;;51.4;;
77748;SDS011;66938;52.084;5.228;2023-05-10T01:33:52;80.3;;;54.4;;
77748;SDS011;66938;52.084;5.228;2023-05-10T01:35:34;86.3;;;55.6;;
77748;SDS011;66938;52.084;5.228;2023-05-10T01:39:02;86.3;;;55.6;;
77748;SDS011;66938;52.084;5.228;2023-05-10T01:40:48;65.2;;;51.5;;
77748;SDS011;66938;52.084;5.228;2023-05-10T01:42:39;84.8;;;56.1;;
77748;SDS011;66938;52.084;5.228;2023-05-10T01:44:24;59.1;;;48.4;;
77748;SDS011;66938;52.084;5.228;2023-05-10T01:46:10;64.7;;;50.3;;
77748;SDS011;66938;52.084;5.228;2023-05-10T01:49:39;60.2;;;48.9;;
77748;SDS011;66938;52.084;5.228;2023-05-10T01:51:20;65.2;;;50.7;;
77748;SDS011;66938;52.084;5.228;2023-05-10T01:53:00;64.8;;;51.4;;
77748;SDS011;66938;52.084;5.228;2023-05-10T01:54:38;61.9;;;51.5;;
77748;SDS011;66938;52.084;5.228;2023-05-10T01:56:19;78.2;;;56.0;;
77748;SDS011;66938;52.084;5.228;2023-05-10T01:59:41;73.3;;;54.7;;
77748;SDS011;66938;52.084;5.228;2023-05-10T02:01:21;86.8;;;58.6;;
77748;SDS011;66938;52.084;5.228;2023-05-10T02:02:58;73.2;;;56.3;;
77748;SDS011;66938;52.084;5.228;2023-05-10T02:04:39;80.3;;;58.2;;
77748;SDS011;66938;52.084;5.228;2023-05-10T02:07:57;69.2;;;54.2;;
77748;SDS011;66938;52.084;5.228;2023-05-10T02:09:35;78.5;;;56.3;;
77748;SDS011;66938;52.084;5.228;2023-05-10T02:11:14;82.3;;;57.9;;
77748;SDS011;66938;52.084;5.228;2023-05-10T02:14:30;79.61;;;58.2;;
77748;SDS011;66938;52.084;5.228;2023-05-10T02:16:10;99.7;;;62.7;;
77748;SDS011;66938;52.084;5.228;2023-05-10T02:17:50;83.9;;;59.1;;
77748;SDS011;66938;52.084;5.228;2023-05-10T02:19:29;88.6;;;60.3;;
77748;SDS011;66938;52.084;5.228;2023-05-10T02:22:45;89.4;;;62.0;;
77748;SDS011;66938;52.084;5.228;2023-05-10T02:24:25;91.3;;;61.6;;
77748;SDS011;66938;52.084;5.228;2023-05-10T02:26:02;129.2;;;70.8;;
77748;SDS011;66938;52.084;5.228;2023-05-10T02:29:18;106.9;;;67.6;;
77748;SDS011;66938;52.084;5.228;2023-05-10T02:30:55;95.5;;;64.1;;
77748;SDS011;66938;52.084;5.228;2023-05-10T02:32:32;109.0;;;68.61;;
77748;SDS011;66938;52.084;5.228;2023-05-10T02:34:10;112.4;;;68.7;;
77748;SDS011;66938;52.084;5.228;2023-05-10T02:37:26;100.1;;;64.41;;
77748;SDS011;66938;52.084;5.228;2023-05-10T02:39:04;117.5;;;65.7;;
77748;SDS011;66938;52.084;5.228;2023-05-10T02:40:42;138.9;;;67.7;;
77748;SDS011;66938;52.084;5.228;2023-05-10T02:42:22;115.8;;;62.4;;
77748;SDS011;66938;52.084;5.228;2023-05-10T02:45:43;111.2;;;62.1;;
77748;SDS011;66938;52.084;5.228;2023-05-10T02:47:23;108.8;;;61.0;;
77748;SDS011;66938;52.084;5.228;2023-05-10T02:48:59;119.3;;;63.4;;
77748;SDS011;66938;52.084;5.228;2023-05-10T02:52:20;127.5;;;65.6;;
77748;SDS011;66938;52.084;5.228;2023-05-10T02:54:00;125.2;;;64.8;;
77748;SDS011;66938;52.084;5.228;2023-05-10T02:55:57;135.81;;;67.7;;
77748;SDS011;66938;52.084;5.228;2023-05-10T02:57:38;125.9;;;68.7;;
77748;SDS011;66938;52.084;5.228;2023-05-10T02:59:17;95.4;;;61.7;;
77748;SDS011;66938;52.084;5.228;2023-05-10T03:02:29;96.9;;;62.2;;
77748;SDS011;66938;52.084;5.228;2023-05-10T03:04:05;102.1;;;63.8;;
77748;SDS011;66938;52.084;5.228;2023-05-10T03:05:43;92.5;;;62.4;;
77748;SDS011;66938;52.084;5.228;2023-05-10T03:08:55;105.4;;;64.0;;
77748;SDS011;66938;52.084;5.228;2023-05-10T03:10:31;120.2;;;66.2;;
77748;SDS011;66938;52.084;5.228;2023-05-10T03:12:13;114.2;;;68.7;;
77748;SDS011;66938;52.084;5.228;2023-05-10T03:14:09;92.2;;;63.3;;
77748;SDS011;66938;52.084;5.228;2023-05-10T03:15:54;93.7;;;63.4;;
77748;SDS011;66938;52.084;5.228;2023-05-10T03:19:24;104.7;;;64.91;;
77748;SDS011;66938;52.084;5.228;2023-05-10T03:21:07;109.6;;;64.7;;
77748;SDS011;66938;52.084;5.228;2023-05-10T03:22:47;92.1;;;62.2;;
77748;SDS011;66938;52.084;5.228;2023-05-10T03:24:27;105.5;;;66.3;;
77748;SDS011;66938;52.084;5.228;2023-05-10T03:27:43;93.9;;;62.7;;
77748;SDS011;66938;52.084;5.228;2023-05-10T03:29:20;96.5;;;63.9;;
77748;SDS011;66938;52.084;5.228;2023-05-10T03:32:35;101.6;;;63.0;;
77748;SDS011;66938;52.084;5.228;2023-05-10T03:35:47;91.8;;;61.0;;
77748;SDS011;66938;52.084;5.228;2023-05-10T03:37:23;80.8;;;56.8;;
77748;SDS011;66938;52.084;5.228;2023-05-10T03:38:59;97.1;;;61.8;;
77748;SDS011;66938;52.084;5.228;2023-05-10T03:42:11;118.7;;;65.8;;
77748;SDS011;66938;52.084;5.228;2023-05-10T03:43:48;105.6;;;62.1;;
77748;SDS011;66938;52.084;5.228;2023-05-10T03:45:24;106.2;;;63.6;;
77748;SDS011;66938;52.084;5.228;2023-05-10T03:48:36;87.4;;;60.3;;
77748;SDS011;66938;52.084;5.228;2023-05-10T03:50:13;87.9;;;59.7;;
77748;SDS011;66938;52.084;5.228;2023-05-10T03:51:49;104.4;;;62.5;;
77748;SDS011;66938;52.084;5.228;2023-05-10T03:53:25;122.3;;;66.91;;
77748;SDS011;66938;52.084;5.228;2023-05-10T03:56:38;89.0;;;58.9;;
77748;SDS011;66938;52.084;5.228;2023-05-10T03:58:14;104.4;;;61.4;;
77748;SDS011;66938;52.084;5.228;2023-05-10T03:59:51;109.3;;;63.7;;
77748;SDS011;66938;52.084;5.228;2023-05-10T04:03:03;86.9;;;57.2;;
77748;SDS011;66938;52.084;5.228;2023-05-10T04:04:39;89.9;;;59.3;;
77748;SDS011;66938;52.084;5.228;2023-05-10T04:06:17;115.4;;;66.5;;
77748;SDS011;66938;52.084;5.228;2023-05-10T04:13:13;118.6;;;67.2;;
77748;SDS011;66938;52.084;5.228;2023-05-10T04:14:49;98.3;;;60.9;;
77748;SDS011;66938;52.084;5.228;2023-05-10T04:18:02;126.5;;;69.2;;
77748;SDS011;66938;52.084;5.228;2023-05-10T04:19:38;125.2;;;66.41;;
77748;SDS011;66938;52.084;5.228;2023-05-10T04:21:14;127.8;;;68.61;;
77748;SDS011;66938;52.084;5.228;2023-05-10T04:22:50;125.6;;;68.2;;
77748;SDS011;66938;52.084;5.228;2023-05-10T04:26:02;111.5;;;65.91;;
77748;SDS011;66938;52.084;5.228;2023-05-10T04:27:38;131.6;;;69.41;;
77748;SDS011;66938;52.084;5.228;2023-05-10T04:29:14;114.1;;;67.0;;
77748;SDS011;66938;52.084;5.228;2023-05-10T04:32:27;113.0;;;64.2;;
77748;SDS011;66938;52.084;5.228;2023-05-10T04:34:03;110.9;;;65.5;;
77748;SDS011;66938;52.084;5.228;2023-05-10T04:35:39;123.6;;;68.91;;
77748;SDS011;66938;52.084;5.228;2023-05-10T04:38:51;106.5;;;63.4;;
77748;SDS011;66938;52.084;5.228;2023-05-10T04:40:27;112.1;;;67.7;;
77748;SDS011;66938;52.084;5.228;2023-05-10T04:42:03;119.4;;;69.2;;
77748;SDS011;66938;52.084;5.228;2023-05-10T04:43:39;98.4;;;64.2;;
77748;SDS011;66938;52.084;5.228;2023-05-10T04:46:52;99.8;;;63.8;;
77748;SDS011;66938;52.084;5.228;2023-05-10T04:48:28;112.6;;;67.3;;
77748;SDS011;66938;52.084;5.228;2023-05-10T04:50:05;101.3;;;65.6;;
77748;SDS011;66938;52.084;5.228;2023-05-10T04:53:18;103.5;;;66.2;;
77748;SDS011;66938;52.084;5.228;2023-05-10T04:54:54;119.7;;;71.7;;
77748;SDS011;66938;52.084;5.228;2023-05-10T04:56:31;95.1;;;65.3;;
77748;SDS011;66938;52.084;5.228;2023-05-10T04:59:43;101.2;;;65.1;;
77748;SDS011;66938;52.084;5.228;2023-05-10T05:01:19;89.1;;;61.1;;
77748;SDS011;66938;52.084;5.228;2023-05-10T05:02:55;98.8;;;66.1;;
77748;SDS011;66938;52.084;5.228;2023-05-10T05:06:07;77.5;;;56.3;;
77748;SDS011;66938;52.084;5.228;2023-05-10T05:07:43;84.2;;;60.6;;
77748;SDS011;66938;52.084;5.228;2023-05-10T05:09:20;69.91;;;52.9;;
77748;SDS011;66938;52.084;5.228;2023-05-10T05:10:56;80.3;;;58.0;;
77748;SDS011;66938;52.084;5.228;2023-05-10T05:14:08;66.6;;;52.2;;
77748;SDS011;66938;52.084;5.228;2023-05-10T05:15:44;59.0;;;51.3;;
77748;SDS011;66938;52.084;5.228;2023-05-10T05:17:21;54.6;;;48.7;;
77748;SDS011;66938;52.084;5.228;2023-05-10T05:20:37;63.5;;;52.6;;
77748;SDS011;66938;52.084;5.228;2023-05-10T05:22:16;79.8;;;62.2;;
77748;SDS011;66938;52.084;5.228;2023-05-10T05:23:54;64.8;;;54.7;;
77748;SDS011;66938;52.084;5.228;2023-05-10T05:25:31;59.2;;;52.8;;
77748;SDS011;66938;52.084;5.228;2023-05-10T05:28:42;67.6;;;57.6;;
77748;SDS011;66938;52.084;5.228;2023-05-10T05:30:18;67.6;;;58.8;;
77748;SDS011;66938;52.084;5.228;2023-05-10T05:31:54;63.6;;;56.5;;
77748;SDS011;66938;52.084;5.228;2023-05-10T05:35:09;82.7;;;62.8;;
77748;SDS011;66938;52.084;5.228;2023-05-10T05:36:45;72.8;;;60.2;;
77748;SDS011;66938;52.084;5.228;2023-05-10T05:38:22;76.3;;;59.4;;
77748;SDS011;66938;52.084;5.228;2023-05-10T05:41:37;82.8;;;62.0;;
77748;SDS011;66938;52.084;5.228;2023-05-10T05:43:15;68.0;;;54.7;;
77748;SDS011;66938;52.084;5.228;2023-05-10T05:44:53;81.0;;;59.1;;
77748;SDS011;66938;52.084;5.228;2023-05-10T05:46:31;83.7;;;59.2;;
77748;SDS011;66938;52.084;5.228;2023-05-10T05:49:46;81.41;;;57.7;;
77748;SDS011;66938;52.084;5.228;2023-05-10T05:51:24;61.0;;;48.4;;
77748;SDS011;66938;52.084;5.228;2023-05-10T05:53:01;52.9;;;44.7;;
77748;SDS011;66938;52.084;5.228;2023-05-10T05:56:14;52.8;;;45.3;;
77748;SDS011;66938;52.084;5.228;2023-05-10T05:57:52;58.3;;;49.7;;
77748;SDS011;66938;52.084;5.228;2023-05-10T05:59:30;74.0;;;55.4;;
77748;SDS011;66938;52.084;5.228;2023-05-10T06:01:07;66.0;;;54.2;;
77748;SDS011;66938;52.084;5.228;2023-05-10T06:04:23;67.0;;;54.8;;
77748;SDS011;66938;52.084;5.228;2023-05-10T06:06:01;73.5;;;58.4;;
77748;SDS011;66938;52.084;5.228;2023-05-10T06:07:39;82.2;;;58.5;;
77748;SDS011;66938;52.084;5.228;2023-05-10T06:10:53;74.7;;;57.0;;
77748;SDS011;66938;52.084;5.228;2023-05-10T06:12:30;60.5;;;49.7;;
77748;SDS011;66938;52.084;5.228;2023-05-10T06:14:08;63.8;;;49.3;;
77748;SDS011;66938;52.084;5.228;2023-05-10T06:15:45;60.6;;;47.2;;
77748;SDS011;66938;52.084;5.228;2023-05-10T06:19:01;54.8;;;45.2;;
77748;SDS011;66938;52.084;5.228;2023-05-10T06:20:38;51.0;;;44.3;;
77748;SDS011;66938;52.084;5.228;2023-05-10T06:22:18;52.6;;;43.7;;
77748;SDS011;66938;52.084;5.228;2023-05-10T06:25:33;53.4;;;43.1;;
77748;SDS011;66938;52.084;5.228;2023-05-10T06:27:11;58.0;;;44.9;;
77748;SDS011;66938;52.084;5.228;2023-05-10T06:28:49;46.7;;;39.21;;
77748;SDS011;66938;52.084;5.228;2023-05-10T06:30:26;39.5;;;35.0;;
77748;SDS011;66938;52.084;5.228;2023-05-10T06:33:41;36.0;;;32.1;;
77748;SDS011;66938;52.084;5.228;2023-05-10T06:35:19;34.81;;;30.7;;
77748;SDS011;66938;52.084;5.228;2023-05-10T06:36:57;35.4;;;30.7;;
77748;SDS011;66938;52.084;5.228;2023-05-10T06:40:13;31.2;;;27.3;;
77748;SDS011;66938;52.084;5.228;2023-05-10T06:41:51;31.2;;;27.0;;
77748;SDS011;66938;52.084;5.228;2023-05-10T06:43:28;29.2;;;24.0;;
77748;SDS011;66938;52.084;5.228;2023-05-10T06:45:07;25.5;;;22.9;;
77748;SDS011;66938;52.084;5.228;2023-05-10T06:48:21;26.2;;;23.0;;
77748;SDS011;66938;52.084;5.228;2023-05-10T06:49:58;27.5;;;24.3;;
77748;SDS011;66938;52.084;5.228;2023-05-10T06:51:35;25.7;;;22.9;;
77748;SDS011;66938;52.084;5.228;2023-05-10T06:54:49;24.8;;;22.1;;
77748;SDS011;66938;52.084;5.228;2023-05-10T06:56:26;25.0;;;22.4;;
77748;SDS011;66938;52.084;5.228;2023-05-10T06:58:03;22.6;;;20.3;;
77748;SDS011;66938;52.084;5.228;2023-05-10T06:59:40;24.3;;;20.6;;
77748;SDS011;66938;52.084;5.228;2023-05-10T07:02:56;21.2;;;19.0;;
77748;SDS011;66938;52.084;5.228;2023-05-10T07:04:32;21.2;;;18.91;;
77748;SDS011;66938;52.084;5.228;2023-05-10T07:06:08;21.5;;;19.3;;
77748;SDS011;66938;52.084;5.228;2023-05-10T07:09:23;20.0;;;18.0;;
77748;SDS011;66938;52.084;5.228;2023-05-10T07:11:01;20.8;;;18.61;;
77748;SDS011;66938;52.084;5.228;2023-05-10T07:12:40;19.2;;;17.3;;
77748;SDS011;66938;52.084;5.228;2023-05-10T07:14:18;18.41;;;16.5;;
77748;SDS011;66938;52.084;5.228;2023-05-10T07:17:33;17.41;;;15.6;;
77748;SDS011;66938;52.084;5.228;2023-05-10T07:19:11;18.11;;;16.2;;
77748;SDS011;66938;52.084;5.228;2023-05-10T07:20:48;18.61;;;16.8;;
77748;SDS011;66938;52.084;5.228;2023-05-10T07:24:04;18.91;;;16.9;;
77748;SDS011;66938;52.084;5.228;2023-05-10T07:25:41;16.5;;;14.8;;
77748;SDS011;66938;52.084;5.228;2023-05-10T07:27:19;17.2;;;15.4;;
77748;SDS011;66938;52.084;5.228;2023-05-10T07:28:56;16.2;;;14.7;;
77748;SDS011;66938;52.084;5.228;2023-05-10T07:32:11;17.7;;;15.9;;
77748;SDS011;66938;52.084;5.228;2023-05-10T07:33:47;17.91;;;16.0;;
77748;SDS011;66938;52.084;5.228;2023-05-10T07:35:25;17.61;;;15.8;;
77748;SDS011;66938;52.084;5.228;2023-05-10T07:38:40;17.3;;;15.6;;
77748;SDS011;66938;52.084;5.228;2023-05-10T07:40:18;17.61;;;15.8;;
77748;SDS011;66938;52.084;5.228;2023-05-10T07:41:55;17.0;;;15.3;;
77748;SDS011;66938;52.084;5.228;2023-05-10T07:43:33;16.4;;;14.7;;
77748;SDS011;66938;52.084;5.228;2023-05-10T07:46:48;16.5;;;14.9;;
77748;SDS011;66938;52.084;5.228;2023-05-10T07:48:26;16.4;;;14.7;;
77748;SDS011;66938;52.084;5.228;2023-05-10T07:50:03;17.61;;;15.7;;
77748;SDS011;66938;52.084;5.228;2023-05-10T07:53:18;17.91;;;16.0;;
77748;SDS011;66938;52.084;5.228;2023-05-10T07:54:55;17.2;;;15.5;;
77748;SDS011;66938;52.084;5.228;2023-05-10T07:56:32;17.3;;;15.6;;
77748;SDS011;66938;52.084;5.228;2023-05-10T07:59:46;18.91;;;16.9;;
77748;SDS011;66938;52.084;5.228;2023-05-10T08:01:24;18.91;;;16.9;;
77748;SDS011;66938;52.084;5.228;2023-05-10T08:03:03;18.41;;;16.7;;
77748;SDS011;66938;52.084;5.228;2023-05-10T08:04:39;17.61;;;15.8;;
77748;SDS011;66938;52.084;5.228;2023-05-10T08:07:55;17.61;;;15.9;;
77748;SDS011;66938;52.084;5.228;2023-05-10T08:09:33;18.11;;;16.3;;
77748;SDS011;66938;52.084;5.228;2023-05-10T08:11:10;17.7;;;16.0;;
77748;SDS011;66938;52.084;5.228;2023-05-10T08:14:25;20.6;;;16.5;;
77748;SDS011;66938;52.084;5.228;2023-05-10T08:16:04;18.41;;;16.5;;
77748;SDS011;66938;52.084;5.228;2023-05-10T08:17:42;17.8;;;16.0;;
77748;SDS011;66938;52.084;5.228;2023-05-10T08:19:20;17.41;;;15.6;;
77748;SDS011;66938;52.084;5.228;2023-05-10T08:22:35;17.7;;;16.0;;
77748;SDS011;66938;52.084;5.228;2023-05-10T08:24:12;17.7;;;15.9;;
77748;SDS011;66938;52.084;5.228;2023-05-10T08:25:50;18.0;;;16.2;;
77748;SDS011;66938;52.084;5.228;2023-05-10T08:29:04;16.9;;;15.2;;
77748;SDS011;66938;52.084;5.228;2023-05-10T08:30:40;16.8;;;15.1;;
77748;SDS011;66938;52.084;5.228;2023-05-10T08:32:18;16.61;;;14.9;;
77748;SDS011;66938;52.084;5.228;2023-05-10T08:33:55;18.0;;;15.8;;
77748;SDS011;66938;52.084;5.228;2023-05-10T08:37:11;16.9;;;15.2;;
77748;SDS011;66938;52.084;5.228;2023-05-10T08:38:50;19.0;;;17.0;;
77748;SDS011;66938;52.084;5.228;2023-05-10T08:40:29;17.5;;;15.8;;
77748;SDS011;66938;52.084;5.228;2023-05-10T08:43:46;18.8;;;16.8;;
77748;SDS011;66938;52.084;5.228;2023-05-10T08:45:25;16.8;;;15.1;;
77748;SDS011;66938;52.084;5.228;2023-05-10T08:47:08;16.61;;;15.0;;
77748;SDS011;66938;52.084;5.228;2023-05-10T08:48:48;16.5;;;14.9;;
77748;SDS011;66938;52.084;5.228;2023-05-10T08:52:06;16.5;;;14.9;;
77748;SDS011;66938;52.084;5.228;2023-05-10T08:53:44;15.7;;;14.1;;
77748;SDS011;66938;52.084;5.228;2023-05-10T08:55:22;15.8;;;14.2;;
77748;SDS011;66938;52.084;5.228;2023-05-10T08:57:00;16.3;;;14.7;;
77748;SDS011;66938;52.084;5.228;2023-05-10T09:00:15;15.8;;;14.3;;
77748;SDS011;66938;52.084;5.228;2023-05-10T09:01:55;15.8;;;14.3;;
77748;SDS011;66938;52.084;5.228;2023-05-10T09:03:34;16.0;;;14.4;;
77748;SDS011;66938;52.084;5.228;2023-05-10T09:05:12;15.1;;;13.6;;
77748;SDS011;66938;52.084;5.228;2023-05-10T09:08:26;15.0;;;13.5;;
77748;SDS011;66938;52.084;5.228;2023-05-10T09:10:05;16.11;;;14.4;;
77748;SDS011;66938;52.084;5.228;2023-05-10T09:11:44;16.3;;;14.7;;
77748;SDS011;66938;52.084;5.228;2023-05-10T09:15:00;16.2;;;14.5;;
77748;SDS011;66938;52.084;5.228;2023-05-10T09:16:39;16.3;;;14.7;;
77748;SDS011;66938;52.084;5.228;2023-05-10T09:18:18;16.61;;;15.0;;
77748;SDS011;66938;52.084;5.228;2023-05-10T09:19:57;16.3;;;14.8;;
77748;SDS011;66938;52.084;5.228;2023-05-10T09:23:13;16.3;;;14.7;;
77748;SDS011;66938;52.084;5.228;2023-05-10T09:25:02;16.5;;;14.7;;
77748;SDS011;66938;52.084;5.228;2023-05-10T09:26:45;15.5;;;13.9;;
77748;SDS011;66938;52.084;5.228;2023-05-10T09:28:24;15.3;;;13.8;;
77748;SDS011;66938;52.084;5.228;2023-05-10T09:31:44;16.0;;;14.5;;
77748;SDS011;66938;52.084;5.228;2023-05-10T09:33:23;16.61;;;14.8;;
77748;SDS011;66938;52.084;5.228;2023-05-10T09:35:05;16.8;;;15.1;;
77748;SDS011;66938;52.084;5.228;2023-05-10T09:36:52;17.3;;;15.5;;
77748;SDS011;66938;52.084;5.228;2023-05-10T09:40:23;18.3;;;16.5;;
77748;SDS011;66938;52.084;5.228;2023-05-10T09:42:03;16.9;;;15.3;;
77748;SDS011;66938;52.084;5.228;2023-05-10T09:43:42;17.3;;;15.6;;
77748;SDS011;66938;52.084;5.228;2023-05-10T09:45:19;16.9;;;15.1;;
77748;SDS011;66938;52.084;5.228;2023-05-10T09:48:38;17.41;;;15.7;;
77748;SDS011;66938;52.084;5.228;2023-05-10T09:50:19;17.8;;;15.9;;
77748;SDS011;66938;52.084;5.228;2023-05-10T09:51:59;15.9;;;14.3;;
77748;SDS011;66938;52.084;5.228;2023-05-10T09:53:38;16.0;;;14.4;;
77748;SDS011;66938;52.084;5.228;2023-05-10T09:56:55;14.6;;;13.2;;
77748;SDS011;66938;52.084;5.228;2023-05-10T09:58:34;15.1;;;13.6;;
77748;SDS011;66938;52.084;5.228;2023-05-10T10:00:16;15.1;;;13.6;;
77748;SDS011;66938;52.084;5.228;2023-05-10T10:01:56;14.0;;;12.6;;
77748;SDS011;66938;52.084;5.228;2023-05-10T10:05:19;12.7;;;11.5;;
77748;SDS011;66938;52.084;5.228;2023-05-10T10:06:58;11.8;;;10.7;;
77748;SDS011;66938;52.084;5.228;2023-05-10T10:08:37;11.6;;;10.5;;
77748;SDS011;66938;52.084;5.228;2023-05-10T10:10:15;11.1;;;10.0;;
77748;SDS011;66938;52.084;5.228;2023-05-10T10:13:31;10.0;;;9.1;;
77748;SDS011;66938;52.084;5.228;2023-05-10T10:15:09;9.21;;;8.2;;
77748;SDS011;66938;52.084;5.228;2023-05-10T10:16:47;9.9;;;8.9;;
77748;SDS011;66938;52.084;5.228;2023-05-10T10:18:26;8.81;;;7.9;;
77748;SDS011;66938;52.084;5.228;2023-05-10T10:21:43;8.5;;;7.7;;
77748;SDS011;66938;52.084;5.228;2023-05-10T10:23:20;9.0;;;8.1;;
77748;SDS011;66938;52.084;5.228;2023-05-10T10:24:58;9.31;;;8.31;;
77748;SDS011;66938;52.084;5.228;2023-05-10T10:28:17;9.21;;;8.31;;
77748;SDS011;66938;52.084;5.228;2023-05-10T10:31:55;8.0;;;7.2;;
77748;SDS011;66938;52.084;5.228;2023-05-10T10:33:51;7.6;;;6.9;;
77748;SDS011;66938;52.084;5.228;2023-05-10T10:35:36;8.9;;;7.1;;
77748;SDS011;66938;52.084;5.228;2023-05-10T10:37:14;8.5;;;7.6;;
77748;SDS011;66938;52.084;5.228;2023-05-10T10:40:33;7.8;;;7.0;;
77748;SDS011;66938;52.084;5.228;2023-05-10T10:42:11;8.1;;;6.8;;
77748;SDS011;66938;52.084;5.228;2023-05-10T10:43:48;8.0;;;7.2;;
77748;SDS011;66938;52.084;5.228;2023-05-10T10:47:04;9.21;;;7.5;;
77748;SDS011;66938;52.084;5.228;2023-05-10T10:48:47;7.7;;;6.7;;
77748;SDS011;66938;52.084;5.228;2023-05-10T10:50:25;7.9;;;7.1;;
77748;SDS011;66938;52.084;5.228;2023-05-10T10:52:21;7.5;;;6.8;;
77748;SDS011;66938;52.084;5.228;2023-05-10T10:54:08;8.2;;;7.3;;
77748;SDS011;66938;52.084;5.228;2023-05-10T10:57:25;8.71;;;7.5;;
77748;SDS011;66938;52.084;5.228;2023-05-10T10:59:03;8.6;;;7.6;;
77748;SDS011;66938;52.084;5.228;2023-05-10T11:00:39;8.2;;;7.3;;
77748;SDS011;66938;52.084;5.228;2023-05-10T11:02:48;8.31;;;7.5;;
77748;SDS011;66938;52.084;5.228;2023-05-10T11:04:26;7.6;;;6.8;;
77748;SDS011;66938;52.084;5.228;2023-05-10T11:07:50;8.5;;;7.6;;
77748;SDS011;66938;52.084;5.228;2023-05-10T11:09:26;8.5;;;7.6;;
77748;SDS011;66938;52.084;5.228;2023-05-10T11:11:03;8.6;;;7.8;;
77748;SDS011;66938;52.084;5.228;2023-05-10T11:14:27;7.9;;;7.2;;
77748;SDS011;66938;52.084;5.228;2023-05-10T11:16:11;7.8;;;7.1;;
77748;SDS011;66938;52.084;5.228;2023-05-10T11:17:50;8.6;;;7.6;;
77748;SDS011;66938;52.084;5.228;2023-05-10T11:19:27;7.4;;;6.7;;
77748;SDS011;66938;52.084;5.228;2023-05-10T11:22:55;7.0;;;6.3;;
77748;SDS011;66938;52.084;5.228;2023-05-10T11:24:31;7.0;;;6.3;;
77748;SDS011;66938;52.084;5.228;2023-05-10T11:26:07;6.9;;;6.2;;
77748;SDS011;66938;52.084;5.228;2023-05-10T11:27:44;7.7;;;6.9;;
77748;SDS011;66938;52.084;5.228;2023-05-10T11:30:59;8.1;;;7.3;;
77748;SDS011;66938;52.084;5.228;2023-05-10T11:32:36;7.3;;;6.4;;
77748;SDS011;66938;52.084;5.228;2023-05-10T11:34:22;7.6;;;6.8;;
77748;SDS011;66938;52.084;5.228;2023-05-10T11:36:00;7.0;;;6.3;;
77748;SDS011;66938;52.084;5.228;2023-05-10T11:39:12;8.2;;;6.8;;
77748;SDS011;66938;52.084;5.228;2023-05-10T11:40:50;7.9;;;6.8;;
77748;SDS011;66938;52.084;5.228;2023-05-10T11:42:27;7.4;;;5.9;;
77748;SDS011;66938;52.084;5.228;2023-05-10T11:45:40;6.2;;;5.5;;
77748;SDS011;66938;52.084;5.228;2023-05-10T11:47:18;7.7;;;5.8;;
77748;SDS011;66938;52.084;5.228;2023-05-10T11:48:55;6.9;;;5.4;;
77748;SDS011;66938;52.084;5.228;2023-05-10T11:50:34;7.0;;;4.91;;
77748;SDS011;66938;52.084;5.228;2023-05-10T11:53:47;6.1;;;4.7;;
77748;SDS011;66938;52.084;5.228;2023-05-10T11:55:25;6.0;;;4.8;;
77748;SDS011;66938;52.084;5.228;2023-05-10T11:57:01;5.3;;;4.7;;
77748;SDS011;66938;52.084;5.228;2023-05-10T12:00:15;5.8;;;5.2;;
77748;SDS011;66938;52.084;5.228;2023-05-10T12:01:51;5.7;;;5.0;;
77748;SDS011;66938;52.084;5.228;2023-05-10T12:03:27;5.5;;;5.0;;
77748;SDS011;66938;52.084;5.228;2023-05-10T12:05:05;7.1;;;4.91;;
77748;SDS011;66938;52.084;5.228;2023-05-10T12:08:20;6.0;;;5.2;;
77748;SDS011;66938;52.084;5.228;2023-05-10T12:10:05;5.8;;;4.7;;
77748;SDS011;66938;52.084;5.228;2023-05-10T12:11:43;7.7;;;5.11;;
77748;SDS011;66938;52.084;5.228;2023-05-10T12:14:56;6.4;;;4.7;;
77748;SDS011;66938;52.084;5.228;2023-05-10T12:16:33;6.5;;;4.61;;
77748;SDS011;66938;52.084;5.228;2023-05-10T12:18:09;6.9;;;4.7;;
77748;SDS011;66938;52.084;5.228;2023-05-10T12:19:46;5.11;;;4.5;;
77748;SDS011;66938;52.084;5.228;2023-05-10T12:22:58;5.8;;;4.8;;
77748;SDS011;66938;52.084;5.228;2023-05-10T12:24:34;6.1;;;4.61;;
77748;SDS011;66938;52.084;5.228;2023-05-10T12:26:11;5.5;;;4.5;;
77748;SDS011;66938;52.084;5.228;2023-05-10T12:29:29;5.3;;;4.7;;
77748;SDS011;66938;52.084;5.228;2023-05-10T12:31:06;5.8;;;5.2;;
77748;SDS011;66938;52.084;5.228;2023-05-10T12:32:43;6.2;;;5.6;;
77748;SDS011;66938;52.084;5.228;2023-05-10T12:34:23;6.4;;;5.6;;
77748;SDS011;66938;52.084;5.228;2023-05-10T12:37:37;8.2;;;7.4;;
77748;SDS011;66938;52.084;5.228;2023-05-10T12:39:14;8.71;;;7.9;;
77748;SDS011;66938;52.084;5.228;2023-05-10T12:40:50;9.0;;;8.2;;
77748;SDS011;66938;52.084;5.228;2023-05-10T12:44:02;8.81;;;7.9;;
77748;SDS011;66938;52.084;5.228;2023-05-10T12:45:38;8.6;;;7.9;;